Time;durP1;ratioP1;P1;durP2;ratioP2;P2;SDS_P1;SDS_P2;PMS_P1;PMS_P2;Temp;Humidity;BMP_temperature;BMP_pressure;BME280_temperature;BME280_humidity;BME280_pressure;Samples;Min_cycle;Max_cycle;Signal;HPM_P1;HPM_P2
2021/12/04 00:01:11;;;;;;;6.40;5.90;;;5.50;99.90;;;;;;5067282;28;20017;-44
2021/12/04 00:03:40;;;;;;;6.68;6.10;;;5.50;99.90;;;;;;5067410;28;20021;-44
2021/12/04 00:06:13;;;;;;;7.57;6.78;;;5.50;99.90;;;;;;5068220;28;20024;-43
2021/12/04 00:08:43;;;;;;;6.85;6.18;;;5.50;99.90;;;;;;5067309;28;20039;-42
2021/12/04 00:11:09;;;;;;;7.32;6.63;;;5.50;99.90;;;;;;5068306;28;20021;-43
2021/12/04 00:13:34;;;;;;;6.38;5.82;;;5.50;99.90;;;;;;5067669;28;20050;-44
2021/12/04 00:15:59;;;;;;;7.07;6.47;;;5.50;99.90;;;;;;5066226;28;20056;-43
2021/12/04 00:18:25;;;;;;;7.50;6.80;;;5.50;99.90;;;;;;5067496;28;20051;-44
2021/12/04 00:20:51;;;;;;;8.05;7.28;;;5.60;99.90;;;;;;5067226;28;20021;-43
2021/12/04 00:23:16;;;;;;;8.38;7.57;;;5.60;99.90;;;;;;5068016;28;20033;-44
2021/12/04 00:25:42;;;;;;;7.97;7.20;;;5.60;99.90;;;;;;5066534;28;20059;-44
2021/12/04 00:28:07;;;;;;;8.48;7.68;;;5.60;99.90;;;;;;5066138;28;20460;-43
2021/12/04 00:30:34;;;;;;;8.32;7.63;;;5.60;99.90;;;;;;5067196;28;20066;-43
2021/12/04 00:33:01;;;;;;;7.88;7.18;;;5.60;99.90;;;;;;5066887;28;20698;-43
2021/12/04 00:38:06;;;;;;;9.05;8.25;;;5.60;99.90;;;;;;5067430;28;20443;-43
2021/12/04 00:43:25;;;;;;;8.70;7.90;;;5.60;99.90;;;;;;5067064;28;20101;-44
2021/12/04 00:51:19;;;;;;;8.02;6.90;;;5.60;99.90;;;;;;5066949;28;20040;-44
2021/12/04 00:53:46;;;;;;;7.75;6.93;;;5.60;99.90;;;;;;5066747;28;20033;-44
2021/12/04 00:56:11;;;;;;;9.13;8.23;;;5.60;99.90;;;;;;5065972;28;20026;-43
2021/12/04 00:58:37;;;;;;;10.10;9.18;;;5.60;99.90;;;;;;5067295;28;20111;-42
2021/12/04 01:01:02;;;;;;;9.30;8.40;;;5.50;99.90;;;;;;5066788;28;20059;-45
2021/12/04 01:03:28;;;;;;;10.20;9.20;;;5.60;99.90;;;;;;5066408;28;20142;-43
2021/12/04 01:05:54;;;;;;;9.85;8.85;;;5.60;99.90;;;;;;5066826;28;20025;-43
2021/12/04 01:08:19;;;;;;;9.70;8.57;;;5.50;99.90;;;;;;5066944;28;20093;-43
2021/12/04 01:10:45;;;;;;;8.48;7.68;;;5.50;99.90;;;;;;5065316;28;20036;-43
2021/12/04 01:13:11;;;;;;;10.40;8.85;;;5.60;99.90;;;;;;5067577;28;20472;-43
2021/12/04 01:15:43;;;;;;;9.52;8.63;;;5.60;99.90;;;;;;5066767;28;20044;-43
2021/12/04 01:18:10;;;;;;;7.97;7.28;;;5.60;99.90;;;;;;5065824;28;20405;-43
2021/12/04 01:20:35;;;;;;;8.75;7.90;;;5.60;99.90;;;;;;5065878;28;20078;-43
2021/12/04 01:23:01;;;;;;;8.52;7.72;;;5.60;99.90;;;;;;5066860;28;20048;-43
2021/12/04 01:25:27;;;;;;;9.07;8.18;;;5.60;99.90;;;;;;5065594;28;20081;-44
2021/12/04 01:27:53;;;;;;;9.13;8.23;;;5.60;99.90;;;;;;5066092;28;20056;-43
2021/12/04 01:30:18;;;;;;;8.02;7.25;;;5.60;99.90;;;;;;5066433;28;20428;-44
2021/12/04 01:32:44;;;;;;;7.47;6.88;;;5.60;99.90;;;;;;5065823;28;20029;-43
2021/12/04 01:35:09;;;;;;;8.80;8.00;;;5.60;99.90;;;;;;5066677;28;20029;-43
2021/12/04 01:37:35;;;;;;;8.45;7.65;;;5.50;99.90;;;;;;5066402;28;20025;-43
2021/12/04 01:40:03;;;;;;;9.18;8.32;;;5.50;99.90;;;;;;5066023;28;20024;-42
2021/12/04 01:42:29;;;;;;;7.78;7.07;;;5.50;99.90;;;;;;5065513;28;20021;-43
2021/12/04 01:44:54;;;;;;;9.82;8.82;;;5.50;99.90;;;;;;5066237;28;20032;-43
2021/12/04 01:47:20;;;;;;;9.88;8.88;;;5.50;99.90;;;;;;5065170;28;20032;-43
2021/12/04 01:49:51;;;;;;;8.93;8.07;;;5.60;99.90;;;;;;5065556;28;20118;-44
2021/12/04 01:52:18;;;;;;;9.48;8.52;;;5.60;99.90;;;;;;5066367;28;20019;-44
2021/12/04 01:54:44;;;;;;;8.38;7.53;;;5.50;99.90;;;;;;5064344;28;20345;-44
2021/12/04 01:57:14;;;;;;;9.43;8.45;;;5.50;99.90;;;;;;5065583;28;20024;-43
2021/12/04 01:59:40;;;;;;;9.18;8.20;;;5.50;99.90;;;;;;5064974;28;20031;-42
2021/12/04 02:02:06;;;;;;;9.02;8.23;;;5.50;99.90;;;;;;5068951;28;20017;-44
2021/12/04 02:04:32;;;;;;;6.93;6.32;;;5.50;99.90;;;;;;5069469;28;20033;-42
2021/12/04 02:07:01;;;;;;;8.65;7.85;;;5.50;99.90;;;;;;5068608;28;20107;-43
2021/12/04 02:09:27;;;;;;;10.15;9.10;;;5.60;99.90;;;;;;5069521;28;20127;-44
2021/12/04 02:11:52;;;;;;;9.98;9.05;;;5.50;99.90;;;;;;5069354;28;20161;-43
2021/12/04 02:14:17;;;;;;;10.60;9.50;;;5.50;99.90;;;;;;5069166;28;20115;-43
2021/12/04 02:16:43;;;;;;;10.20;9.20;;;5.50;99.90;;;;;;5069553;28;20078;-43
2021/12/04 02:19:08;;;;;;;9.30;8.40;;;5.50;99.90;;;;;;5069624;28;20027;-43
2021/12/04 02:21:34;;;;;;;8.85;8.00;;;5.50;99.90;;;;;;5069180;28;20064;-44
2021/12/04 02:24:01;;;;;;;9.57;8.68;;;5.50;99.90;;;;;;5069754;28;20032;-43
2021/12/04 02:26:26;;;;;;;9.45;8.50;;;5.50;99.90;;;;;;5069687;28;20028;-43
2021/12/04 02:28:52;;;;;;;10.38;8.95;;;5.50;99.90;;;;;;5068974;28;20483;-43
2021/12/04 02:31:18;;;;;;;10.75;9.65;;;5.50;99.90;;;;;;5069442;28;20594;-43
2021/12/04 02:33:44;;;;;;;10.52;9.45;;;5.50;99.90;;;;;;5069963;28;20317;-43
2021/12/04 02:36:09;;;;;;;10.68;9.57;;;5.50;99.90;;;;;;5069275;28;20462;-43
2021/12/04 02:38:35;;;;;;;8.13;7.32;;;5.50;99.90;;;;;;5069553;28;20559;-43
2021/12/04 02:41:01;;;;;;;10.20;9.20;;;5.50;99.90;;;;;;5070193;28;20031;-42
2021/12/04 02:43:31;;;;;;;11.10;10.00;;;5.50;99.90;;;;;;5068114;28;20404;-43
2021/12/04 02:45:56;;;;;;;9.57;8.68;;;5.50;99.90;;;;;;5068757;28;20491;-43
2021/12/04 02:48:22;;;;;;;9.93;9.02;;;5.60;99.90;;;;;;5069998;28;20041;-43
2021/12/04 02:50:47;;;;;;;7.70;7.00;;;5.60;99.90;;;;;;5069126;28;20103;-44
2021/12/04 02:53:13;;;;;;;10.13;9.13;;;5.50;99.90;;;;;;5069494;28;20025;-44
2021/12/04 02:55:40;;;;;;;8.32;7.47;;;5.60;99.90;;;;;;5068147;28;20024;-44
2021/12/04 02:58:05;;;;;;;10.68;9.68;;;5.60;99.90;;;;;;5069548;28;20022;-44
2021/12/04 03:00:31;;;;;;;9.55;8.55;;;5.60;99.90;;;;;;5069129;28;20024;-43
2021/12/04 03:02:57;;;;;;;9.15;8.25;;;5.60;99.90;;;;;;5069328;28;20039;-43
2021/12/04 03:05:29;;;;;;;9.50;8.60;;;5.50;99.90;;;;;;5068826;28;20470;-43
2021/12/04 03:07:56;;;;;;;8.80;7.95;;;5.50;99.90;;;;;;5068659;28;20093;-46
2021/12/04 03:10:23;;;;;;;8.50;7.70;;;5.60;99.90;;;;;;5068414;28;20047;-43
2021/12/04 03:12:49;;;;;;;8.65;7.82;;;5.60;99.90;;;;;;5068407;28;20426;-44
2021/12/04 03:15:15;;;;;;;8.05;7.25;;;5.60;99.90;;;;;;5069197;28;20113;-44
2021/12/04 03:17:41;;;;;;;7.13;6.43;;;5.60;99.90;;;;;;5068349;28;20028;-43
2021/12/04 03:20:08;;;;;;;7.53;6.72;;;5.60;99.90;;;;;;5068870;28;20070;-44
2021/12/04 03:22:33;;;;;;;6.53;5.93;;;5.60;99.90;;;;;;5068336;28;20052;-43
2021/12/04 03:24:59;;;;;;;7.47;6.68;;;5.70;99.90;;;;;;5068019;28;20025;-42
2021/12/04 03:27:26;;;;;;;6.93;6.22;;;5.70;99.90;;;;;;5068970;28;20111;-43
2021/12/04 03:30:01;;;;;;;7.57;6.88;;;5.70;99.90;;;;;;5068376;28;20032;-43
2021/12/04 03:42:58;;;;;;;7.20;6.50;;;5.80;99.90;;;;;;5069241;28;20033;-43
2021/12/04 03:45:24;;;;;;;6.55;5.95;;;5.80;99.90;;;;;;5068580;28;20058;-43
2021/12/04 03:47:52;;;;;;;6.45;5.85;;;5.80;99.90;;;;;;5067941;28;20667;-43
2021/12/04 03:50:18;;;;;;;7.80;6.05;;;5.80;99.90;;;;;;5068425;28;20559;-43
2021/12/04 03:52:44;;;;;;;6.20;5.60;;;5.80;99.90;;;;;;5066847;28;20127;-43
2021/12/04 03:55:10;;;;;;;6.68;6.07;;;5.80;99.90;;;;;;5067947;28;20067;-42
2021/12/04 03:57:44;;;;;;;6.45;5.85;;;5.80;99.90;;;;;;5068039;28;20483;-43
2021/12/04 04:00:12;;;;;;;7.45;6.00;;;5.80;99.90;;;;;;5067935;28;20032;-43
2021/12/04 04:02:37;;;;;;;6.82;6.13;;;5.80;99.90;;;;;;5067214;28;20028;-44
2021/12/04 04:05:04;;;;;;;6.43;5.80;;;5.80;99.90;;;;;;5068800;28;20024;-44
2021/12/04 04:07:32;;;;;;;7.70;6.57;;;5.80;99.90;;;;;;5066413;28;20024;-43
2021/12/04 04:09:58;;;;;;;6.68;6.07;;;5.80;99.90;;;;;;5067768;28;20032;-43
2021/12/04 04:12:23;;;;;;;7.45;6.22;;;5.80;99.90;;;;;;5068123;28;20089;-44
2021/12/04 04:14:49;;;;;;;8.43;7.10;;;5.80;99.90;;;;;;5047655;28;20059;-44
2021/12/04 04:17:14;;;;;;;8.88;6.82;;;5.80;99.90;;;;;;5061952;28;20028;-43
2021/12/04 04:19:40;;;;;;;9.60;6.68;;;5.80;99.90;;;;;;5067567;28;20112;-44
2021/12/04 04:22:06;;;;;;;7.25;6.47;;;5.80;99.90;;;;;;5066765;28;20119;-44
2021/12/04 04:24:34;;;;;;;9.32;7.10;;;5.80;99.90;;;;;;5067755;28;20021;-43
2021/12/04 04:27:01;;;;;;;10.57;7.32;;;5.80;99.90;;;;;;5067926;28;20432;-44
2021/12/04 04:29:27;;;;;;;10.80;7.88;;;5.80;99.90;;;;;;5067118;28;20079;-42
2021/12/04 04:31:54;;;;;;;10.73;7.65;;;5.80;99.90;;;;;;5066942;28;20020;-44
2021/12/04 04:34:29;;;;;;;10.82;7.25;;;5.80;99.90;;;;;;5066712;28;20605;-44
2021/12/04 04:40:10;;;;;;;9.20;7.50;;;5.80;99.90;;;;;;5066894;28;20032;-43
2021/12/04 05:12:53;;;;;;;12.27;9.00;;;5.80;99.90;;;;;;5067045;28;20103;-44
2021/12/04 05:20:39;;;;;;;14.20;9.40;;;5.90;99.90;;;;;;5066076;28;20040;-42
2021/12/04 05:23:07;;;;;;;12.95;9.55;;;5.80;99.90;;;;;;5066407;28;20056;-44
2021/12/04 05:25:36;;;;;;;15.38;10.50;;;5.80;99.90;;;;;;5065934;28;20468;-43
2021/12/04 05:28:07;;;;;;;17.17;10.93;;;5.80;99.90;;;;;;5067223;28;20056;-43
2021/12/04 05:30:33;;;;;;;14.55;10.43;;;5.80;99.90;;;;;;5064739;28;20043;-44
2021/12/04 05:32:59;;;;;;;19.52;10.18;;;5.80;99.90;;;;;;5066378;28;20533;-43
2021/12/04 05:35:25;;;;;;;14.77;10.80;;;5.80;99.90;;;;;;5068827;28;20036;-43
2021/12/04 05:37:51;;;;;;;16.80;10.55;;;5.80;99.90;;;;;;5072389;28;20028;-44
2021/12/04 05:40:17;;;;;;;18.70;10.95;;;5.80;99.90;;;;;;5073667;28;20117;-43
2021/12/04 05:42:44;;;;;;;14.60;8.95;;;5.80;99.90;;;;;;5072424;28;20085;-44
2021/12/04 05:45:47;;;;;;;14.27;10.20;;;5.80;99.90;;;;;;5072043;28;20028;-42
2021/12/04 05:48:08;;;;;;;15.80;11.05;;;5.80;99.90;;;;;;5052244;28;20369;-43
2021/12/04 05:53:24;;;;;;;20.10;9.98;;;5.80;99.90;;;;;;5072423;28;20032;-43
2021/12/04 05:55:56;;;;;;;18.15;10.38;;;5.80;99.90;;;;;;5073574;28;20032;-42
2021/12/04 05:58:28;;;;;;;16.55;10.52;;;5.80;99.90;;;;;;5053661;28;20108;-43
2021/12/04 06:00:56;;;;;;;13.57;9.03;;;5.80;99.90;;;;;;5067853;28;20387;-44
2021/12/04 06:03:22;;;;;;;16.55;10.45;;;5.80;99.90;;;;;;5073575;28;20028;-43
2021/12/04 06:05:48;;;;;;;13.85;9.75;;;5.80;99.90;;;;;;5072517;28;20036;-44
2021/12/04 06:08:14;;;;;;;16.83;10.45;;;5.80;99.90;;;;;;5072863;28;20025;-44
2021/12/04 06:10:40;;;;;;;14.68;9.23;;;5.80;99.90;;;;;;5072483;28;20052;-42
2021/12/04 06:13:05;;;;;;;17.92;10.57;;;5.80;99.90;;;;;;5072983;28;20033;-44
2021/12/04 06:15:32;;;;;;;13.48;9.50;;;5.80;99.90;;;;;;5072810;28;20023;-43
2021/12/04 06:17:58;;;;;;;16.17;10.63;;;5.80;99.90;;;;;;5073428;28;20103;-43
2021/12/04 06:23:08;;;;;;;15.68;9.77;;;5.80;99.90;;;;;;5072585;28;20067;-43
2021/12/04 06:25:35;;;;;;;15.32;8.75;;;5.80;99.90;;;;;;5072627;28;20020;-43
2021/12/04 06:28:01;;;;;;;18.63;9.23;;;5.80;99.90;;;;;;5072419;28;20032;-44
2021/12/04 06:30:26;;;;;;;14.25;9.20;;;5.80;99.90;;;;;;5072449;28;20050;-43
2021/12/04 06:32:53;;;;;;;13.32;8.82;;;5.80;99.90;;;;;;5072648;28;20427;-43
2021/12/04 06:35:21;;;;;;;16.05;8.38;;;5.80;99.90;;;;;;5072325;28;20025;-43
2021/12/04 06:37:48;;;;;;;13.65;8.65;;;5.80;99.90;;;;;;5072250;28;20020;-44
2021/12/04 06:40:19;;;;;;;14.05;9.07;;;5.80;99.90;;;;;;5072721;28;20040;-43
2021/12/04 06:42:45;;;;;;;15.95;9.18;;;5.80;99.90;;;;;;5072121;28;20127;-44
2021/12/04 06:45:12;;;;;;;12.93;8.02;;;5.80;99.90;;;;;;5072763;28;20039;-43
2021/12/04 06:47:40;;;;;;;13.07;8.35;;;5.80;99.90;;;;;;5069269;28;20365;-44
2021/12/04 06:50:12;;;;;;;12.48;8.13;;;5.80;99.90;;;;;;5069665;28;20036;-44
2021/12/04 06:52:42;;;;;;;;;;;5.80;99.90;;;;;;5069463;28;20597;-43
2021/12/04 06:55:08;;;;;;;11.20;7.38;;;5.80;99.90;;;;;;5069208;28;19912;-43
2021/12/04 06:57:38;;;;;;;12.75;7.25;;;5.80;99.90;;;;;;5069353;28;20373;-43
2021/12/04 07:00:06;;;;;;;11.32;7.93;;;5.80;99.90;;;;;;5069728;28;20559;-43
2021/12/04 07:02:31;;;;;;;13.85;7.55;;;5.80;99.90;;;;;;5068685;28;20028;-44
2021/12/04 07:04:57;;;;;;;12.38;7.38;;;5.80;99.90;;;;;;5069455;28;20028;-42
2021/12/04 07:07:23;;;;;;;12.90;7.53;;;5.80;99.90;;;;;;5069699;28;20448;-45
2021/12/04 07:09:48;;;;;;;13.07;8.00;;;5.80;99.90;;;;;;5068034;28;20060;-43
2021/12/04 07:12:14;;;;;;;11.27;7.90;;;5.80;99.90;;;;;;5069712;28;20012;-43
2021/12/04 07:14:40;;;;;;;15.35;7.40;;;5.80;99.90;;;;;;5068951;28;20032;-44
2021/12/04 07:17:08;;;;;;;11.88;7.85;;;5.80;99.90;;;;;;5068572;28;20020;-43
2021/12/04 07:19:33;;;;;;;16.23;8.40;;;5.80;99.90;;;;;;5069320;28;20028;-43
2021/12/04 07:22:01;;;;;;;11.00;7.10;;;5.90;99.90;;;;;;5068504;28;20051;-42
2021/12/04 07:24:28;;;;;;;13.85;9.02;;;5.90;99.90;;;;;;5064521;28;20033;-43
2021/12/04 07:26:54;;;;;;;14.05;9.15;;;5.80;99.90;;;;;;5069490;28;20046;-43
2021/12/04 07:29:20;;;;;;;15.48;8.88;;;5.90;99.90;;;;;;5069404;28;20036;-43
2021/12/04 07:31:45;;;;;;;17.40;8.93;;;5.90;99.90;;;;;;5068051;28;20036;-43
2021/12/04 07:34:11;;;;;;;17.42;10.10;;;5.90;99.90;;;;;;5068766;28;20115;-43
2021/12/04 07:36:37;;;;;;;17.42;9.90;;;5.90;99.90;;;;;;5068589;28;20468;-43
2021/12/04 07:39:04;;;;;;;14.55;9.60;;;5.90;99.90;;;;;;5068482;28;20028;-44
2021/12/04 07:41:30;;;;;;;16.65;9.10;;;5.90;99.90;;;;;;5068244;28;20391;-44
2021/12/04 07:43:56;;;;;;;14.05;9.30;;;5.90;99.90;;;;;;5067765;28;20024;-45
2021/12/04 07:46:22;;;;;;;19.15;10.75;;;5.90;99.90;;;;;;5068425;28;20020;-44
2021/12/04 07:48:47;;;;;;;17.95;9.35;;;5.90;99.90;;;;;;5068252;28;20607;-43
2021/12/04 07:51:19;;;;;;;19.27;9.85;;;6.00;99.90;;;;;;5067772;28;20063;-45
2021/12/04 07:53:47;;;;;;;18.65;10.75;;;5.90;99.90;;;;;;5067686;28;20726;-43
2021/12/04 07:56:14;;;;;;;19.35;10.70;;;6.00;99.90;;;;;;5068106;28;20028;-44
2021/12/04 07:58:42;;;;;;;15.38;9.50;;;6.00;99.90;;;;;;5066859;28;20032;-44
2021/12/04 08:01:11;;;;;;;14.25;9.52;;;5.90;99.90;;;;;;5068370;28;20024;-44
2021/12/04 08:03:37;;;;;;;18.35;11.00;;;5.90;99.90;;;;;;5067645;28;20435;-44
2021/12/04 08:06:03;;;;;;;17.98;10.52;;;5.90;99.90;;;;;;5067781;28;20056;-43
2021/12/04 08:08:29;;;;;;;18.50;11.35;;;5.90;99.90;;;;;;5067943;28;20054;-44
2021/12/04 08:10:54;;;;;;;21.58;11.10;;;5.90;99.90;;;;;;5067729;28;20450;-44
2021/12/04 08:13:20;;;;;;;16.75;9.68;;;5.90;99.90;;;;;;5068139;28;20124;-44
2021/12/04 08:15:46;;;;;;;18.58;11.00;;;5.90;99.90;;;;;;5067305;28;20028;-44
2021/12/04 08:18:11;;;;;;;19.25;10.98;;;5.90;99.90;;;;;;5067877;28;20021;-44
2021/12/04 08:20:37;;;;;;;19.55;9.88;;;6.00;99.90;;;;;;5066282;28;20028;-43
2021/12/04 08:23:06;;;;;;;18.42;10.70;;;6.00;99.90;;;;;;5068027;28;20127;-43
2021/12/04 08:25:33;;;;;;;20.70;10.18;;;6.00;99.90;;;;;;5066810;28;20027;-44
2021/12/04 08:28:00;;;;;;;17.48;9.38;;;6.00;99.90;;;;;;5066562;28;20100;-43
2021/12/04 08:30:29;;;;;;;16.75;9.77;;;6.10;99.90;;;;;;5066728;28;20028;-43
2021/12/04 08:32:56;;;;;;;15.73;9.57;;;6.10;99.90;;;;;;5066658;28;20534;-43
2021/12/04 08:35:25;;;;;;;16.08;9.10;;;6.10;99.90;;;;;;5066701;28;20021;-43
2021/12/04 08:37:52;;;;;;;22.40;9.77;;;6.10;99.90;;;;;;5066675;28;20029;-44
2021/12/04 08:40:18;;;;;;;18.00;10.02;;;6.10;99.90;;;;;;5066564;28;20044;-43
2021/12/04 08:42:45;;;;;;;17.95;9.23;;;6.10;99.90;;;;;;5066301;28;20051;-43
2021/12/04 08:45:12;;;;;;;19.67;9.77;;;6.10;99.90;;;;;;5066782;28;20032;-43
2021/12/04 08:47:38;;;;;;;16.77;10.20;;;6.10;99.90;;;;;;5065610;28;20099;-44
2021/12/04 08:50:10;;;;;;;19.50;11.15;;;6.10;99.90;;;;;;5066059;28;20453;-44
2021/12/04 08:52:38;;;;;;;17.23;11.10;;;6.10;99.90;;;;;;5066134;28;20024;-43
2021/12/04 08:55:05;;;;;;;18.20;10.73;;;6.10;99.90;;;;;;5064713;28;20032;-44
2021/12/04 08:57:30;;;;;;;15.55;8.98;;;6.10;99.90;;;;;;5065291;28;20119;-43
2021/12/04 08:59:56;;;;;;;17.58;9.07;;;6.10;99.90;;;;;;5065329;28;20119;-43
2021/12/04 09:02:22;;;;;;;18.23;11.00;;;6.10;99.90;;;;;;5064553;28;20376;-43
2021/12/04 09:04:48;;;;;;;22.92;11.02;;;6.10;99.90;;;;;;5066666;28;20036;-43
2021/12/04 09:07:15;;;;;;;18.38;11.20;;;6.20;99.90;;;;;;5066557;28;20081;-43
2021/12/04 09:09:41;;;;;;;19.60;10.40;;;6.20;99.90;;;;;;5045463;28;20048;-44
2021/12/04 09:12:09;;;;;;;20.67;11.18;;;6.20;99.90;;;;;;5060749;28;20012;-43
2021/12/04 09:14:37;;;;;;;16.10;8.82;;;6.30;99.90;;;;;;5066137;28;20555;-44
2021/12/04 09:17:07;;;;;;;15.38;9.02;;;6.30;99.90;;;;;;5065941;28;20094;-44
2021/12/04 09:19:33;;;;;;;20.63;10.93;;;6.30;99.90;;;;;;5066774;28;20029;-44
2021/12/04 09:21:59;;;;;;;19.30;10.18;;;6.40;99.90;;;;;;5066330;28;20055;-44
2021/12/04 09:24:37;;;;;;;17.30;10.32;;;6.40;99.90;;;;;;5065657;28;20074;-43
2021/12/04 09:29:46;;;;;;;20.73;11.30;;;6.40;99.90;;;;;;5066701;28;20056;-43
2021/12/04 09:35:29;;;;;;;19.38;10.07;;;6.40;99.90;;;;;;5066339;28;20039;-45
2021/12/04 10:02:13;;;;;;;17.08;10.82;;;6.50;99.90;;;;;;5066800;28;20064;-43
2021/12/04 10:16:17;;;;;;;18.92;11.25;;;6.50;99.90;;;;;;5066841;28;20051;-44
2021/12/04 10:21:45;;;;;;;15.13;10.32;;;6.50;99.90;;;;;;5066430;28;20048;-43
2021/12/04 10:24:39;;;;;;;18.73;10.63;;;6.60;99.90;;;;;;5070405;28;20047;-42
2021/12/04 10:32:54;;;;;;;18.08;11.88;;;6.60;99.90;;;;;;5049944;28;20032;-43
2021/12/04 10:35:22;;;;;;;17.98;10.48;;;6.60;99.90;;;;;;5067779;28;20140;-44
2021/12/04 10:38:03;;;;;;;17.30;10.85;;;6.60;99.90;;;;;;5070845;28;20377;-43
2021/12/04 10:40:38;;;;;;;18.45;10.90;;;6.70;99.90;;;;;;5068221;28;20024;-43
2021/12/04 10:43:17;;;;;;;19.00;11.05;;;6.70;99.90;;;;;;5068025;28;20016;-43
2021/12/04 10:45:49;;;;;;;21.25;13.50;;;6.70;99.90;;;;;;5066317;28;20488;-43
2021/12/04 10:48:20;;;;;;;19.40;11.40;;;6.70;99.90;;;;;;5069096;28;20020;-42
2021/12/04 10:53:37;;;;;;;20.33;11.13;;;6.70;99.90;;;;;;5069811;28;20025;-44
2021/12/04 10:59:08;;;;;;;18.15;10.00;;;6.70;99.90;;;;;;5069850;28;20063;-44
2021/12/04 11:07:13;;;;;;;23.85;11.52;;;6.60;99.90;;;;;;5068769;28;20037;-43
2021/12/04 11:21:16;;;;;;;16.52;10.27;;;6.50;99.90;;;;;;5068436;28;20102;-43
2021/12/04 11:35:17;;;;;;;15.27;8.73;;;6.60;99.90;;;;;;5047630;28;20091;-43
2021/12/04 11:43:00;;;;;;;17.20;9.60;;;6.70;99.90;;;;;;5067890;28;20036;-44
2021/12/04 11:45:40;;;;;;;14.48;9.32;;;6.70;99.90;;;;;;5067009;28;20028;-43
2021/12/04 11:48:06;;;;;;;18.13;9.98;;;6.80;99.90;;;;;;5067183;28;20032;-43
2021/12/04 11:50:35;;;;;;;15.93;9.25;;;6.80;99.90;;;;;;5067870;28;20031;-43
2021/12/04 11:53:04;;;;;;;14.57;9.45;;;6.80;99.90;;;;;;5066659;28;20021;-44
2021/12/04 11:55:35;;;;;;;13.57;9.15;;;6.80;99.90;;;;;;5064980;28;20031;-43
2021/12/04 11:58:02;;;;;;;11.13;8.35;;;6.80;99.90;;;;;;5066643;28;20362;-43
2021/12/04 12:00:31;;;;;;;14.20;9.93;;;6.80;99.90;;;;;;5067701;28;20456;-44
2021/12/04 12:03:12;;;;;;;14.43;9.35;;;6.80;99.90;;;;;;5067248;28;20032;-44
2021/12/04 12:05:59;;;;;;;14.32;9.73;;;6.80;99.90;;;;;;5047704;28;20040;-44
2021/12/04 12:08:35;;;;;;;16.23;10.57;;;6.80;99.90;;;;;;5064798;28;20070;-43
2021/12/04 12:11:07;;;;;;;18.70;11.38;;;6.80;99.90;;;;;;5067942;28;20040;-43
2021/12/04 12:13:39;;;;;;;15.85;10.38;;;6.70;99.90;;;;;;5067052;28;20029;-43
2021/12/04 12:16:18;;;;;;;19.43;11.70;;;6.70;99.90;;;;;;5067410;28;20028;-43
2021/12/04 12:18:57;;;;;;;15.35;10.63;;;6.70;99.90;;;;;;5063347;28;20024;-43
2021/12/04 12:21:50;;;;;;;16.80;10.93;;;6.70;99.90;;;;;;5067784;28;20052;-43
2021/12/04 12:27:29;;;;;;;17.80;11.93;;;6.70;99.90;;;;;;5063607;28;20024;-43
2021/12/04 12:38:11;;;;;;;15.77;10.48;;;6.70;99.90;;;;;;5064869;28;20044;-44
2021/12/04 12:40:37;;;;;;;14.82;11.15;;;6.70;99.90;;;;;;5065568;28;20028;-43
2021/12/04 12:43:16;;;;;;;13.95;10.80;;;6.70;99.90;;;;;;5066981;28;20035;-43
2021/12/04 12:45:52;;;;;;;14.63;10.88;;;6.70;99.90;;;;;;5065812;28;20033;-43
2021/12/04 12:48:19;;;;;;;13.65;10.10;;;6.70;99.90;;;;;;5066240;28;20055;-43
2021/12/04 12:50:46;;;;;;;11.25;9.55;;;6.60;99.90;;;;;;5066525;28;20028;-43
2021/12/04 12:53:16;;;;;;;12.57;9.88;;;6.70;99.90;;;;;;5066664;28;20362;-44
2021/12/04 12:55:45;;;;;;;10.52;7.72;;;6.70;99.90;;;;;;5065098;28;20024;-43
2021/12/04 12:58:20;;;;;;;13.45;10.73;;;6.70;99.90;;;;;;5067053;28;20396;-43
2021/12/04 13:12:09;;;;;;;12.25;9.90;;;6.70;99.90;;;;;;5064266;28;20039;-42
2021/12/04 13:14:36;;;;;;;10.55;8.45;;;6.70;99.90;;;;;;5064176;28;20539;-42
2021/12/04 13:17:09;;;;;;;9.98;8.57;;;6.70;99.90;;;;;;5066718;28;20487;-43
2021/12/04 13:19:38;;;;;;;9.88;8.27;;;6.70;99.90;;;;;;5066384;28;20032;-43
2021/12/04 13:22:08;;;;;;;10.23;8.93;;;6.70;99.90;;;;;;5065987;28;20040;-43
2021/12/04 13:24:37;;;;;;;9.85;8.85;;;6.80;99.90;;;;;;5066285;28;20078;-43
2021/12/04 13:29:38;;;;;;;8.85;7.75;;;6.80;99.90;;;;;;5050442;28;20044;-43
2021/12/04 13:32:04;;;;;;;10.27;8.65;;;6.80;99.90;;;;;;5067252;28;20557;-43
2021/12/04 13:34:31;;;;;;;11.25;9.50;;;6.80;99.90;;;;;;5066774;28;20030;-43
2021/12/04 13:36:58;;;;;;;11.70;9.27;;;6.80;99.90;;;;;;5065350;28;20592;-43
2021/12/04 13:39:24;;;;;;;10.52;9.43;;;6.70;99.90;;;;;;5064420;28;20025;-43
2021/12/04 13:41:52;;;;;;;11.80;10.02;;;6.80;99.90;;;;;;5066368;28;20436;-43
2021/12/04 13:44:25;;;;;;;12.70;10.30;;;6.80;99.90;;;;;;5066253;28;20443;-43
2021/12/04 13:46:55;;;;;;;10.73;9.63;;;6.70;99.90;;;;;;5066576;28;20024;-43
2021/12/04 13:49:31;;;;;;;10.80;9.05;;;6.80;99.90;;;;;;5067728;28;20033;-43
2021/12/04 13:52:00;;;;;;;10.50;8.93;;;6.80;99.90;;;;;;5066380;28;20052;-43
2021/12/04 13:54:28;;;;;;;10.35;8.18;;;6.80;99.90;;;;;;5066576;28;20508;-44
2021/12/04 13:56:54;;;;;;;10.57;9.05;;;6.70;99.90;;;;;;5067518;28;20052;-44
2021/12/04 13:59:25;;;;;;;11.00;9.85;;;6.80;99.90;;;;;;5050997;28;20060;-44
2021/12/04 14:01:52;;;;;;;12.65;10.45;;;6.80;99.90;;;;;;5068570;28;20116;-43
2021/12/04 14:04:19;;;;;;;12.55;10.60;;;6.80;99.90;;;;;;5070730;28;20028;-43
2021/12/04 14:06:50;;;;;;;12.38;10.68;;;6.80;99.90;;;;;;5069945;28;20028;-45
2021/12/04 14:09:17;;;;;;;15.40;12.02;;;6.80;99.90;;;;;;5070044;28;20047;-43
2021/12/04 14:11:43;;;;;;;15.13;11.25;;;6.80;99.90;;;;;;5069524;28;20032;-45
2021/12/04 14:14:14;;;;;;;13.65;11.80;;;6.80;99.90;;;;;;5070334;28;20637;-43
2021/12/04 14:16:41;;;;;;;12.70;10.98;;;6.80;99.90;;;;;;5069739;28;20021;-44
2021/12/04 14:19:17;;;;;;;17.25;13.43;;;6.80;99.90;;;;;;5068324;28;20028;-44
2021/12/04 14:22:04;;;;;;;14.27;12.77;;;6.70;99.90;;;;;;5069494;28;20063;-43
2021/12/04 14:24:46;;;;;;;16.60;13.60;;;6.70;99.90;;;;;;5069778;28;20021;-44
2021/12/04 14:27:16;;;;;;;14.50;12.63;;;6.80;99.90;;;;;;5069504;28;20035;-46
2021/12/04 14:29:47;;;;;;;12.80;10.90;;;6.70;99.90;;;;;;5065853;28;20964;-44
2021/12/04 14:32:14;;;;;;;13.52;11.27;;;6.80;99.90;;;;;;5064690;28;20047;-44
2021/12/04 14:34:39;;;;;;;12.18;10.80;;;6.70;99.90;;;;;;5062194;28;20029;-43
2021/12/04 14:37:09;;;;;;;10.38;9.27;;;6.80;99.90;;;;;;5058914;28;20024;-43
2021/12/04 14:39:35;;;;;;;13.43;10.80;;;6.80;99.90;;;;;;5068426;28;20476;-44
2021/12/04 14:42:10;;;;;;;12.15;10.60;;;6.80;99.90;;;;;;5068609;28;20105;-44
2021/12/04 14:44:36;;;;;;;13.20;10.88;;;6.80;99.90;;;;;;5058977;28;20055;-44
2021/12/04 14:47:05;;;;;;;11.88;10.63;;;6.80;99.90;;;;;;5068972;28;20048;-43
2021/12/04 14:49:36;;;;;;;13.68;10.95;;;6.80;99.90;;;;;;5069184;28;20037;-44
2021/12/04 14:52:02;;;;;;;13.45;11.38;;;6.80;99.90;;;;;;5069667;28;20032;-43
2021/12/04 14:54:30;;;;;;;12.10;10.73;;;6.80;99.90;;;;;;5068021;28;20498;-44
2021/12/04 14:56:56;;;;;;;12.75;11.10;;;6.80;99.90;;;;;;5069401;28;20701;-42
2021/12/04 14:59:22;;;;;;;11.50;10.30;;;6.80;99.90;;;;;;5069419;28;20017;-43
2021/12/04 15:01:48;;;;;;;12.55;11.00;;;6.80;99.90;;;;;;5068546;28;20110;-43
2021/12/04 15:04:13;;;;;;;11.80;10.57;;;6.80;99.90;;;;;;5069239;28;20030;-44
2021/12/04 15:06:40;;;;;;;11.75;10.40;;;6.80;99.90;;;;;;5068921;28;20472;-43
2021/12/04 15:09:11;;;;;;;11.00;9.82;;;6.90;99.90;;;;;;5066993;28;20119;-42
2021/12/04 15:11:40;;;;;;;11.25;10.05;;;6.80;99.90;;;;;;5068080;28;20033;-44
2021/12/04 15:14:10;;;;;;;11.52;9.32;;;6.80;99.90;;;;;;5069776;28;20013;-43
2021/12/04 15:16:49;;;;;;;10.40;9.20;;;6.80;99.90;;;;;;5068708;28;20032;-43
2021/12/04 15:19:39;;;;;;;11.45;10.25;;;6.90;99.90;;;;;;5069036;28;20059;-43
2021/12/04 15:22:08;;;;;;;10.95;9.77;;;6.80;99.90;;;;;;5068328;28;20078;-43
2021/12/04 15:24:38;;;;;;;8.93;7.95;;;6.80;99.90;;;;;;5068641;28;20028;-43
2021/12/04 15:27:10;;;;;;;11.32;9.60;;;6.80;99.90;;;;;;5069153;28;20127;-41
2021/12/04 15:29:37;;;;;;;11.20;9.82;;;6.80;99.90;;;;;;5067280;28;20037;-43
2021/12/04 15:32:09;;;;;;;11.50;9.77;;;6.80;99.90;;;;;;5068296;28;20515;-43
2021/12/04 15:34:41;;;;;;;14.60;10.47;;;6.80;99.90;;;;;;5068041;28;20747;-43
2021/12/04 15:37:07;;;;;;;11.30;9.95;;;6.80;99.90;;;;;;5068194;28;20021;-43
2021/12/04 15:39:41;;;;;;;15.25;11.43;;;6.80;99.90;;;;;;5068526;28;20066;-44
2021/12/04 15:42:23;;;;;;;13.55;10.95;;;6.80;99.90;;;;;;5068407;28;20012;-44
2021/12/04 15:47:36;;;;;;;15.18;12.13;;;6.80;99.90;;;;;;5063497;28;20028;-43
2021/12/04 15:50:25;;;;;;;12.85;10.85;;;6.80;99.90;;;;;;5067587;28;20042;-44
2021/12/04 15:53:01;;;;;;;14.60;11.43;;;6.80;99.90;;;;;;5067614;28;20145;-44
2021/12/04 15:55:35;;;;;;;13.45;10.43;;;6.80;99.90;;;;;;5064709;28;20025;-44